Time;durP1;ratioP1;P1;durP2;ratioP2;P2;SDS_P1;SDS_P2;PMS_P1;PMS_P2;Temp;Humidity;BMP_temperature;BMP_pressure;BME280_temperature;BME280_humidity;BME280_pressure;Samples;Min_cycle;Max_cycle;Signal;HPM_P1;HPM_P2
2022/11/10 00:00:40;;;;;;;19.10;1.98;;;9.80;96.50;;;;;;5098149;28;20028;-74
2022/11/10 00:03:08;;;;;;;16.17;2.15;;;9.80;96.50;;;;;;5097994;28;20052;-74
2022/11/10 00:05:36;;;;;;;13.35;1.38;;;9.80;96.30;;;;;;5096342;28;20108;-74
2022/11/10 00:08:04;;;;;;;14.48;1.88;;;9.80;96.40;;;;;;5090136;28;20511;-74
2022/11/10 00:10:30;;;;;;;18.40;2.75;;;9.80;96.50;;;;;;5095532;28;20047;-74
2022/11/10 00:13:01;;;;;;;15.18;1.92;;;9.80;96.50;;;;;;5096760;28;20040;-74
2022/11/10 00:18:10;;;;;;;12.93;1.35;;;9.80;96.50;;;;;;5097667;28;20042;-74
2022/11/10 00:20:36;;;;;;;18.73;1.95;;;9.90;96.60;;;;;;5094848;28;20027;-75
2022/11/10 00:23:02;;;;;;;17.77;2.20;;;9.90;96.80;;;;;;5097757;28;20440;-75
2022/11/10 00:25:27;;;;;;;19.15;2.10;;;9.90;96.70;;;;;;5095973;28;20231;-74
2022/11/10 00:27:53;;;;;;;17.02;1.73;;;9.90;96.70;;;;;;5094681;28;20031;-74
2022/11/10 00:30:19;;;;;;;19.17;2.10;;;9.90;96.50;;;;;;5093051;28;20122;-74
2022/11/10 00:32:46;;;;;;;19.52;1.85;;;9.90;96.60;;;;;;5094193;28;20027;-74
2022/11/10 00:35:12;;;;;;;19.92;1.90;;;10.00;96.70;;;;;;5095067;28;20019;-74
2022/11/10 00:37:37;;;;;;;23.42;1.90;;;10.00;96.70;;;;;;5095862;28;20066;-74
2022/11/10 00:40:04;;;;;;;20.23;2.70;;;10.10;96.90;;;;;;5097161;28;20030;-74
2022/11/10 00:42:29;;;;;;;17.73;2.30;;;10.10;97.00;;;;;;5076786;28;20112;-74
2022/11/10 00:44:55;;;;;;;14.27;1.73;;;10.20;97.10;;;;;;5093635;28;20033;-74
2022/11/10 00:47:20;;;;;;;14.68;1.65;;;10.20;97.00;;;;;;5094748;28;20625;-74
2022/11/10 00:49:46;;;;;;;15.75;1.70;;;10.20;96.90;;;;;;5078094;28;20031;-74
2022/11/10 00:52:11;;;;;;;17.75;2.15;;;10.30;96.90;;;;;;5095148;28;20502;-74
2022/11/10 00:54:37;;;;;;;23.02;2.40;;;10.30;96.80;;;;;;5097224;28;20027;-74
2022/11/10 00:57:03;;;;;;;18.20;1.95;;;10.30;96.80;;;;;;5096645;28;20272;-74
2022/11/10 00:59:29;;;;;;;16.10;2.13;;;10.30;96.40;;;;;;5095666;28;20099;-74
2022/11/10 01:01:54;;;;;;;15.23;1.75;;;10.30;96.30;;;;;;5093837;28;20155;-74
2022/11/10 01:04:20;;;;;;;15.50;1.90;;;10.30;96.40;;;;;;5093532;28;20433;-74
2022/11/10 01:06:47;;;;;;;23.10;2.15;;;10.30;96.70;;;;;;5094695;28;20104;-74
2022/11/10 01:09:13;;;;;;;18.38;3.25;;;10.40;97.00;;;;;;5094199;28;20225;-74
2022/11/10 01:11:38;;;;;;;14.18;1.70;;;10.30;97.00;;;;;;5074646;28;20024;-73
2022/11/10 01:14:04;;;;;;;16.45;2.35;;;10.40;96.90;;;;;;5093805;28;20042;-74
2022/11/10 01:16:31;;;;;;;21.67;2.35;;;10.40;96.80;;;;;;5093527;28;20024;-74
2022/11/10 01:19:01;;;;;;;17.33;2.42;;;10.40;96.70;;;;;;5093630;28;20399;-74
2022/11/10 01:21:28;;;;;;;21.92;1.98;;;10.40;96.70;;;;;;5091794;28;20810;-74
2022/11/10 01:23:55;;;;;;;13.32;1.60;;;10.40;97.00;;;;;;5091794;28;20082;-74
2022/11/10 01:26:21;;;;;;;19.15;1.70;;;10.70;97.40;;;;;;5093122;28;20548;-75
2022/11/10 01:28:46;;;;;;;15.15;1.27;;;10.80;97.20;;;;;;5092886;28;20081;-74
2022/11/10 01:31:15;;;;;;;22.92;2.42;;;10.80;96.90;;;;;;5068408;28;20087;-73
2022/11/10 01:33:41;;;;;;;16.88;3.08;;;10.80;96.80;;;;;;5074033;28;20379;-74
2022/11/10 01:36:08;;;;;;;18.75;1.98;;;10.90;96.50;;;;;;5074162;28;20027;-74
2022/11/10 01:38:36;;;;;;;15.98;1.50;;;10.90;96.50;;;;;;5088211;28;20024;-74
2022/11/10 01:41:03;;;;;;;21.95;1.77;;;11.00;96.30;;;;;;5089491;28;20126;-74
2022/11/10 01:43:29;;;;;;;10.02;1.27;;;10.90;96.30;;;;;;5090347;28;20087;-74
2022/11/10 01:46:08;;;;;;;14.50;1.48;;;10.90;96.30;;;;;;5091938;28;20276;-73
2022/11/10 01:48:36;;;;;;;14.02;1.60;;;11.00;96.30;;;;;;5092262;28;20402;-73
2022/11/10 01:51:25;;;;;;;14.73;1.80;;;10.90;96.10;;;;;;5092988;28;20031;-74
2022/11/10 01:53:59;;;;;;;21.17;1.75;;;11.00;96.20;;;;;;5079267;28;20111;-74
2022/11/10 01:56:29;;;;;;;14.93;1.40;;;11.10;96.00;;;;;;5095578;28;20039;-73
2022/11/10 01:58:59;;;;;;;16.90;1.70;;;11.20;95.90;;;;;;5097367;28;20046;-73
2022/11/10 02:01:25;;;;;;;15.13;2.50;;;11.30;95.60;;;;;;5097248;28;20119;-74
2022/11/10 02:04:19;;;;;;;16.73;2.42;;;11.40;95.50;;;;;;5086942;28;20201;-73
2022/11/10 02:06:47;;;;;;;14.68;2.55;;;11.50;95.20;;;;;;5093846;28;20339;-74
2022/11/10 02:09:13;;;;;;;20.17;1.90;;;11.50;95.10;;;;;;5095247;28;20476;-73
2022/11/10 02:11:40;;;;;;;10.75;1.20;;;11.50;94.80;;;;;;5095928;28;20041;-74
2022/11/10 02:14:07;;;;;;;13.52;1.40;;;11.50;94.90;;;;;;5095543;28;20063;-74
2022/11/10 02:16:33;;;;;;;18.88;1.35;;;11.50;95.00;;;;;;5097086;28;20381;-73
2022/11/10 02:19:19;;;;;;;10.77;1.33;;;11.60;94.80;;;;;;5079842;28;20024;-73
2022/11/10 02:21:46;;;;;;;14.75;1.48;;;11.70;94.70;;;;;;5096911;28;20036;-73
2022/11/10 02:24:11;;;;;;;15.30;1.83;;;11.80;94.70;;;;;;5077369;28;20058;-73
2022/11/10 02:26:42;;;;;;;20.20;1.85;;;11.90;94.50;;;;;;5097343;28;20027;-74
2022/11/10 02:29:08;;;;;;;20.55;2.42;;;12.00;94.20;;;;;;5077654;28;20498;-73
2022/11/10 02:31:34;;;;;;;21.08;1.75;;;12.00;94.20;;;;;;5089006;28;20035;-73
2022/11/10 02:33:59;;;;;;;14.43;2.45;;;12.00;94.20;;;;;;5080688;28;20126;-73
2022/11/10 02:36:25;;;;;;;25.10;2.20;;;12.00;94.40;;;;;;5089670;28;20038;-73
2022/11/10 02:38:51;;;;;;;19.55;1.60;;;12.10;94.30;;;;;;5091087;28;20027;-73
2022/11/10 02:41:16;;;;;;;15.40;1.73;;;12.20;94.30;;;;;;5100008;28;20030;-73
2022/11/10 02:43:42;;;;;;;16.77;1.55;;;12.30;94.30;;;;;;5095017;28;20123;-73
2022/11/10 02:46:08;;;;;;;20.30;1.70;;;12.30;94.30;;;;;;5088909;28;20053;-74
2022/11/10 02:48:33;;;;;;;17.17;1.55;;;12.40;93.90;;;;;;5082477;28;20440;-75
2022/11/10 02:50:59;;;;;;;16.35;2.13;;;12.30;93.70;;;;;;5091528;28;20751;-74
2022/11/10 02:53:24;;;;;;;13.68;1.55;;;12.20;93.80;;;;;;5097876;28;20036;-74
2022/11/10 02:55:50;;;;;;;12.35;1.63;;;12.20;94.00;;;;;;5096154;28;20023;-74
2022/11/10 02:58:16;;;;;;;13.73;1.48;;;12.10;94.20;;;;;;5095957;28;20064;-74
2022/11/10 03:00:41;;;;;;;19.33;2.42;;;12.10;94.20;;;;;;5091562;28;20974;-73
2022/11/10 03:03:07;;;;;;;14.32;1.73;;;12.20;94.00;;;;;;5087305;28;20052;-73
2022/11/10 03:05:32;;;;;;;25.45;2.05;;;12.20;93.80;;;;;;5095217;28;20430;-73
2022/11/10 03:08:01;;;;;;;13.07;1.63;;;12.30;93.50;;;;;;5080122;28;20218;-73
2022/11/10 03:10:28;;;;;;;7.68;1.38;;;12.40;93.00;;;;;;5088326;28;20053;-73
2022/11/10 03:12:59;;;;;;;18.33;1.95;;;12.50;92.60;;;;;;5086636;28;20430;-74
2022/11/10 03:15:25;;;;;;;13.00;1.48;;;12.50;92.50;;;;;;5090866;28;20028;-73
2022/11/10 03:17:51;;;;;;;10.30;1.80;;;12.40;92.50;;;;;;5096836;28;20594;-74
2022/11/10 03:20:17;;;;;;;12.15;1.45;;;12.50;92.70;;;;;;5097679;28;20042;-74
2022/11/10 03:22:43;;;;;;;10.30;1.50;;;12.40;92.70;;;;;;5076652;28;20032;-74
2022/11/10 03:25:09;;;;;;;15.43;1.85;;;12.40;92.60;;;;;;5097472;28;20032;-74
2022/11/10 03:27:35;;;;;;;10.57;1.35;;;12.30;92.70;;;;;;5094530;28;20051;-74
2022/11/10 03:30:01;;;;;;;13.10;1.42;;;12.30;93.00;;;;;;5092901;28;20117;-73
2022/11/10 03:32:26;;;;;;;15.32;1.88;;;12.40;92.80;;;;;;5095025;28;20066;-74
2022/11/10 03:34:52;;;;;;;12.35;1.30;;;12.40;92.70;;;;;;5097999;28;20426;-73
2022/11/10 03:37:17;;;;;;;14.57;2.38;;;12.40;92.90;;;;;;5097102;28;20063;-74
2022/11/10 03:39:43;;;;;;;12.15;1.40;;;12.40;92.90;;;;;;5097046;28;20463;-74
2022/11/10 03:42:09;;;;;;;14.43;1.60;;;12.40;92.50;;;;;;5099148;28;20035;-74
2022/11/10 03:44:34;;;;;;;9.43;1.15;;;12.40;92.80;;;;;;5097818;28;20040;-74
2022/11/10 03:47:02;;;;;;;13.57;1.17;;;12.40;92.90;;;;;;5098276;28;20026;-74
2022/11/10 03:49:28;;;;;;;15.82;1.85;;;12.40;92.90;;;;;;5097255;28;20031;-74
2022/11/10 03:51:54;;;;;;;15.98;2.15;;;12.50;92.90;;;;;;5095334;28;20031;-74
2022/11/10 03:54:19;;;;;;;16.58;1.52;;;12.60;92.90;;;;;;5097553;28;20024;-73
2022/11/10 03:56:45;;;;;;;19.83;2.05;;;12.70;92.70;;;;;;5098654;28;20111;-73
2022/11/10 03:59:11;;;;;;;20.65;2.00;;;12.70;92.70;;;;;;5097615;28;20112;-74
2022/11/10 04:01:36;;;;;;;16.65;1.73;;;12.70;92.60;;;;;;5094639;28;20050;-74
2022/11/10 04:04:02;;;;;;;9.95;1.48;;;12.70;92.60;;;;;;5099008;28;20321;-73
2022/11/10 04:09:12;;;;;;;18.45;1.80;;;12.50;92.80;;;;;;5095700;28;20063;-73
2022/11/10 04:17:06;;;;;;;12.18;1.50;;;12.70;92.90;;;;;;5099507;28;20555;-73
2022/11/10 04:19:31;;;;;;;15.38;1.42;;;12.70;92.80;;;;;;5098927;28;20036;-73
2022/11/10 04:21:57;;;;;;;18.60;1.90;;;12.80;92.50;;;;;;5097146;28;20403;-73
2022/11/10 04:24:22;;;;;;;20.73;1.80;;;12.80;92.50;;;;;;5096767;28;20456;-73
2022/11/10 04:26:48;;;;;;;16.15;1.58;;;12.80;92.40;;;;;;5098753;28;20121;-74
2022/11/10 04:29:16;;;;;;;18.15;2.40;;;12.90;92.50;;;;;;5096299;28;20474;-73
2022/11/10 04:31:42;;;;;;;17.25;1.65;;;12.90;92.40;;;;;;5079835;28;20020;-73
2022/11/10 04:34:10;;;;;;;12.55;2.25;;;12.90;92.50;;;;;;5096143;28;20367;-73
2022/11/10 04:36:38;;;;;;;15.05;1.55;;;13.00;92.20;;;;;;5098109;28;20474;-73
2022/11/10 04:39:05;;;;;;;13.98;1.55;;;12.90;92.30;;;;;;5071177;28;20500;-73
2022/11/10 04:41:32;;;;;;;18.02;2.45;;;12.90;92.30;;;;;;5087750;28;20401;-73
2022/11/10 04:43:59;;;;;;;12.05;1.30;;;12.90;92.30;;;;;;5095577;28;20063;-73
2022/11/10 04:46:35;;;;;;;15.25;1.58;;;13.00;92.30;;;;;;5096866;28;20023;-73
2022/11/10 04:49:01;;;;;;;17.27;2.13;;;13.00;92.10;;;;;;5077730;28;20533;-73
2022/11/10 04:51:32;;;;;;;13.15;3.05;;;13.00;92.00;;;;;;5094294;28;20039;-73
2022/11/10 04:53:58;;;;;;;;;;;12.80;92.30;;;;;;5097732;28;20039;-73
2022/11/10 04:56:24;;;;;;;16.02;1.83;;;12.70;92.70;;;;;;5097047;28;19933;-73
2022/11/10 04:58:50;;;;;;;16.92;1.67;;;12.70;93.20;;;;;;5095634;28;20026;-73
2022/11/10 05:01:19;;;;;;;18.40;2.08;;;12.60;93.50;;;;;;5094904;28;20356;-73
2022/11/10 05:03:46;;;;;;;17.73;1.55;;;12.70;93.60;;;;;;5082408;28;20052;-73
2022/11/10 05:06:12;;;;;;;11.55;1.80;;;12.60;93.50;;;;;;5078348;28;20103;-73
2022/11/10 05:08:39;;;;;;;18.08;1.70;;;12.50;93.60;;;;;;5077771;28;20138;-73
2022/11/10 05:11:05;;;;;;;12.85;1.45;;;12.50;93.80;;;;;;5089850;28;20032;-72
2022/11/10 05:13:30;;;;;;;17.60;1.88;;;12.50;94.00;;;;;;5097013;28;20295;-72
2022/11/10 05:15:56;;;;;;;18.05;1.73;;;12.40;93.90;;;;;;5093970;28;20035;-73
2022/11/10 05:18:23;;;;;;;17.75;1.75;;;12.40;93.80;;;;;;5095221;28;20435;-74
2022/11/10 05:20:49;;;;;;;12.80;2.35;;;12.40;94.00;;;;;;5091302;28;20092;-73
2022/11/10 05:25:58;;;;;;;16.40;1.98;;;12.50;93.50;;;;;;5096409;28;20383;-73
2022/11/10 05:28:24;;;;;;;12.07;1.42;;;12.40;93.50;;;;;;5095516;28;20023;-73
2022/11/10 05:30:50;;;;;;;16.35;1.95;;;12.40;93.40;;;;;;5097496;28;20034;-73
2022/11/10 05:33:15;;;;;;;14.40;1.88;;;12.40;93.00;;;;;;5098589;28;20058;-73
2022/11/10 05:35:41;;;;;;;13.98;1.45;;;12.40;93.10;;;;;;5098302;28;20418;-73
2022/11/10 05:38:06;;;;;;;10.85;1.65;;;12.30;93.20;;;;;;5099632;28;20034;-73
2022/11/10 05:40:33;;;;;;;14.25;1.60;;;12.30;93.20;;;;;;5099806;28;20375;-73
2022/11/10 05:42:59;;;;;;;14.30;1.80;;;12.10;93.30;;;;;;5099394;28;20117;-74
2022/11/10 05:45:26;;;;;;;10.10;1.25;;;12.00;93.50;;;;;;5099274;28;20269;-73
2022/11/10 05:47:52;;;;;;;14.45;1.40;;;11.90;93.50;;;;;;5100229;28;20105;-73
2022/11/10 05:50:19;;;;;;;11.90;1.45;;;11.90;93.60;;;;;;5101691;28;20024;-74
2022/11/10 05:52:50;;;;;;;13.27;1.83;;;11.80;93.60;;;;;;5101279;28;20036;-73
2022/11/10 05:55:18;;;;;;;10.05;1.30;;;12.00;93.60;;;;;;5099874;28;20031;-73
2022/11/10 05:57:45;;;;;;;15.55;1.65;;;12.00;93.50;;;;;;5099021;28;20030;-73
2022/11/10 06:00:13;;;;;;;14.30;1.42;;;11.90;93.70;;;;;;5098831;28;20141;-73
2022/11/10 06:02:39;;;;;;;16.50;1.63;;;11.90;94.00;;;;;;5079926;28;20670;-73
2022/11/10 06:05:05;;;;;;;12.95;1.48;;;11.90;94.20;;;;;;5098276;28;20489;-73
2022/11/10 06:07:31;;;;;;;18.35;1.67;;;11.90;94.30;;;;;;5095778;28;20032;-73
2022/11/10 06:09:57;;;;;;;13.93;1.92;;;12.00;94.30;;;;;;5099995;28;20038;-73
2022/11/10 06:12:23;;;;;;;17.75;2.78;;;11.90;94.20;;;;;;5078785;28;20497;-73
2022/11/10 06:14:50;;;;;;;12.75;1.20;;;12.00;94.20;;;;;;5094694;28;20024;-73
2022/11/10 06:17:17;;;;;;;11.95;1.70;;;12.10;94.20;;;;;;5097684;28;20027;-73
2022/11/10 06:19:42;;;;;;;11.38;1.45;;;12.20;93.90;;;;;;5097649;28;20562;-73
2022/11/10 06:22:08;;;;;;;17.00;1.67;;;12.40;93.70;;;;;;5095048;28;20024;-73
2022/11/10 06:24:34;;;;;;;14.85;1.65;;;12.50;93.40;;;;;;5097541;28;20054;-73
2022/11/10 06:27:00;;;;;;;10.90;1.25;;;12.60;92.90;;;;;;5076871;28;20463;-73
2022/11/10 06:29:25;;;;;;;16.98;1.83;;;12.60;93.00;;;;;;5093449;28;20132;-73
2022/11/10 06:31:51;;;;;;;15.25;1.30;;;12.50;93.10;;;;;;5079370;28;20028;-73
2022/11/10 06:34:17;;;;;;;9.07;1.40;;;12.50;93.10;;;;;;5080355;28;20055;-73
2022/11/10 06:36:43;;;;;;;16.50;1.45;;;12.50;93.40;;;;;;5088890;28;20544;-73
2022/11/10 06:39:08;;;;;;;18.30;1.77;;;12.60;93.60;;;;;;5079882;28;20478;-73
2022/11/10 06:41:34;;;;;;;19.20;1.77;;;12.70;93.90;;;;;;5096081;28;20122;-73
2022/11/10 06:43:59;;;;;;;11.30;1.52;;;12.70;93.60;;;;;;5095593;28;21082;-72
2022/11/10 06:46:25;;;;;;;16.90;2.00;;;12.70;93.70;;;;;;5098758;28;20432;-73
2022/11/10 06:48:51;;;;;;;14.20;1.55;;;12.90;93.10;;;;;;5099643;28;20040;-73
2022/11/10 06:51:17;;;;;;;15.32;2.05;;;13.00;92.50;;;;;;5098435;28;20035;-72
2022/11/10 06:53:43;;;;;;;16.77;1.45;;;13.00;92.80;;;;;;5097384;28;20053;-73
2022/11/10 06:56:09;;;;;;;13.23;1.70;;;13.10;92.30;;;;;;5073153;28;20613;-73
2022/11/10 06:58:35;;;;;;;14.73;1.73;;;13.10;92.20;;;;;;5088088;28;20073;-73
2022/11/10 07:01:00;;;;;;;12.68;1.25;;;13.10;92.00;;;;;;5083642;28;20031;-73
2022/11/10 07:03:26;;;;;;;11.20;1.60;;;13.00;92.10;;;;;;5074620;28;20052;-73
2022/11/10 07:05:52;;;;;;;13.48;1.50;;;12.90;92.10;;;;;;5090924;28;20084;-73
2022/11/10 07:08:18;;;;;;;13.70;1.60;;;12.80;92.50;;;;;;5100198;28;20035;-73
2022/11/10 07:10:50;;;;;;;14.65;1.73;;;12.70;92.90;;;;;;5097826;28;20027;-73
2022/11/10 07:13:15;;;;;;;;;;;12.70;93.20;;;;;;5097053;28;20537;-74
2022/11/10 07:15:41;;;;;;;16.95;2.38;;;12.80;93.30;;;;;;5093496;28;19952;-73
2022/11/10 07:18:07;;;;;;;17.20;1.80;;;13.00;93.20;;;;;;5098755;28;20062;-73
2022/11/10 07:20:33;;;;;;;21.40;1.77;;;13.00;92.90;;;;;;5099635;28;20102;-73
2022/11/10 07:23:00;;;;;;;17.38;2.00;;;13.10;92.90;;;;;;5089756;28;20023;-73
2022/11/10 07:25:27;;;;;;;18.95;2.22;;;13.20;92.30;;;;;;5089994;28;20047;-73
2022/11/10 07:28:01;;;;;;;16.83;1.70;;;13.20;92.20;;;;;;5091124;28;20113;-73
2022/11/10 07:30:29;;;;;;;18.20;2.60;;;13.20;92.10;;;;;;5092148;28;20016;-72
2022/11/10 07:33:13;;;;;;;15.32;2.55;;;13.20;91.90;;;;;;5096338;28;20054;-74
2022/11/10 07:35:39;;;;;;;14.35;1.42;;;13.10;92.20;;;;;;5095265;28;20105;-73
2022/11/10 07:38:10;;;;;;;12.73;1.55;;;13.10;91.70;;;;;;5094297;28;20031;-73
2022/11/10 07:40:36;;;;;;;17.95;1.90;;;13.20;91.80;;;;;;5085793;28;20447;-73
2022/11/10 07:43:03;;;;;;;16.23;2.10;;;13.20;91.40;;;;;;5068919;28;20081;-73
2022/11/10 07:45:29;;;;;;;13.77;1.80;;;13.30;91.40;;;;;;5094166;28;20337;-74
2022/11/10 07:48:02;;;;;;;19.33;2.03;;;13.40;91.00;;;;;;5078254;28;20089;-73
2022/11/10 07:50:28;;;;;;;14.82;1.63;;;13.70;90.20;;;;;;5099254;28;20414;-73
2022/11/10 07:53:10;;;;;;;16.45;2.15;;;14.10;89.70;;;;;;5091600;28;20036;-73
2022/11/10 07:55:37;;;;;;;14.63;1.85;;;14.20;88.80;;;;;;5083824;28;20116;-73
2022/11/10 07:58:03;;;;;;;15.05;1.65;;;14.30;87.10;;;;;;5086887;28;20031;-73
2022/11/10 08:00:29;;;;;;;14.77;1.92;;;14.30;87.50;;;;;;5094547;28;20058;-73
2022/11/10 08:03:04;;;;;;;15.15;1.80;;;14.50;87.20;;;;;;5085455;28;20052;-73
2022/11/10 08:05:30;;;;;;;15.57;1.85;;;14.60;87.20;;;;;;5091065;28;20186;-73
2022/11/10 08:07:56;;;;;;;14.07;1.70;;;14.80;84.30;;;;;;5090669;28;20052;-73
2022/11/10 08:10:22;;;;;;;12.90;1.80;;;15.10;82.60;;;;;;5096580;28;20078;-73
2022/11/10 08:12:55;;;;;;;20.17;1.95;;;15.30;82.00;;;;;;5098401;28;20036;-73
2022/11/10 08:15:21;;;;;;;11.88;1.45;;;15.30;80.30;;;;;;5079275;28;20236;-72
2022/11/10 08:17:47;;;;;;;15.40;2.00;;;15.30;80.60;;;;;;5097868;28;20030;-72
2022/11/10 08:20:12;;;;;;;12.90;1.40;;;15.30;80.70;;;;;;5097773;28;20419;-73
2022/11/10 08:22:38;;;;;;;11.23;1.63;;;15.30;81.70;;;;;;5097336;28;20035;-73
2022/11/10 08:25:04;;;;;;;10.30;1.58;;;15.30;81.20;;;;;;5094913;28;20077;-73
2022/11/10 08:27:30;;;;;;;14.32;1.95;;;15.20;80.90;;;;;;5098640;28;20506;-72
2022/11/10 08:29:55;;;;;;;12.40;2.33;;;15.30;81.50;;;;;;5092043;28;20032;-72
2022/11/10 08:32:21;;;;;;;10.68;1.80;;;15.30;81.60;;;;;;5091428;28;20353;-73
2022/11/10 08:34:46;;;;;;;12.77;2.00;;;15.30;80.80;;;;;;5088758;28;20064;-73
2022/11/10 08:37:12;;;;;;;15.40;1.88;;;15.20;81.20;;;;;;5091851;28;20691;-73
2022/11/10 08:39:38;;;;;;;13.00;2.45;;;15.20;81.20;;;;;;5091509;28;20035;-73
2022/11/10 08:42:05;;;;;;;15.93;1.75;;;15.30;80.70;;;;;;5089843;28;20031;-73
2022/11/10 08:44:30;;;;;;;15.23;1.25;;;15.40;81.00;;;;;;5086256;28;20501;-74
2022/11/10 08:46:56;;;;;;;12.88;1.40;;;15.40;80.10;;;;;;5091889;28;20079;-73
2022/11/10 08:49:21;;;;;;;12.13;1.70;;;15.50;81.20;;;;;;5094111;28;20296;-73
2022/11/10 08:51:47;;;;;;;14.57;1.50;;;15.50;80.40;;;;;;5091201;28;20027;-72
2022/11/10 08:54:13;;;;;;;22.92;2.05;;;15.50;80.70;;;;;;5088864;28;20027;-73
2022/11/10 08:56:39;;;;;;;10.90;1.83;;;15.70;80.70;;;;;;5077781;28;20042;-73
2022/11/10 08:59:05;;;;;;;15.65;1.52;;;16.30;78.60;;;;;;5097213;28;20028;-73
2022/11/10 09:01:30;;;;;;;18.52;1.80;;;17.00;74.60;;;;;;5075731;28;20038;-73
2022/11/10 09:03:56;;;;;;;13.52;1.80;;;17.10;73.40;;;;;;5080807;28;20106;-73
2022/11/10 09:06:21;;;;;;;16.30;2.97;;;17.20;73.30;;;;;;5079754;28;20103;-73
2022/11/10 09:08:47;;;;;;;11.82;1.48;;;17.30;72.60;;;;;;5080703;28;20213;-73
2022/11/10 09:11:13;;;;;;;16.13;1.83;;;17.80;71.10;;;;;;5074744;28;20028;-73
2022/11/10 09:13:38;;;;;;;16.70;1.60;;;17.50;70.50;;;;;;5071266;28;20478;-73
2022/11/10 09:16:04;;;;;;;15.02;1.63;;;17.40;70.00;;;;;;5075846;28;20028;-72
2022/11/10 09:18:30;;;;;;;7.03;1.48;;;17.60;68.70;;;;;;5076511;28;20051;-73
2022/11/10 09:20:56;;;;;;;8.20;1.40;;;18.70;65.40;;;;;;5084242;28;20173;-71
2022/11/10 09:23:23;;;;;;;9.52;1.42;;;20.00;62.80;;;;;;5069303;28;20024;-72
2022/11/10 09:25:51;;;;;;;13.55;1.60;;;20.60;58.60;;;;;;5087456;28;20632;-72
2022/11/10 09:28:18;;;;;;;14.60;1.80;;;20.00;58.80;;;;;;5087246;28;20024;-71
2022/11/10 09:30:49;;;;;;;10.35;1.63;;;19.90;60.80;;;;;;5092316;28;20053;-72
2022/11/10 09:33:16;;;;;;;16.15;1.83;;;20.00;61.70;;;;;;5090753;28;20041;-70
2022/11/10 09:35:42;;;;;;;16.08;1.60;;;19.90;62.40;;;;;;5096533;28;20091;-71
2022/11/10 09:38:08;;;;;;;11.50;1.73;;;19.80;62.90;;;;;;5094933;28;20110;-72
2022/11/10 09:41:01;;;;;;;11.63;1.50;;;19.80;61.70;;;;;;5092710;28;20540;-71
2022/11/10 09:43:35;;;;;;;12.52;1.85;;;19.70;62.90;;;;;;5094283;28;20531;-71
2022/11/10 09:46:08;;;;;;;10.15;1.20;;;19.60;62.40;;;;;;5082672;28;20562;-71
2022/11/10 09:48:41;;;;;;;13.50;1.70;;;19.60;61.70;;;;;;5093313;28;20446;-72
2022/11/10 09:51:11;;;;;;;10.90;1.63;;;19.20;62.20;;;;;;5068628;28;20035;-71
2022/11/10 09:53:43;;;;;;;11.15;1.55;;;19.20;64.20;;;;;;5086173;28;20036;-72
2022/11/10 09:56:17;;;;;;;7.47;1.15;;;18.80;63.20;;;;;;5093159;28;20030;-72
2022/11/10 09:58:44;;;;;;;10.68;1.38;;;19.10;64.90;;;;;;5093403;28;20138;-71
2022/11/10 10:01:18;;;;;;;13.05;1.38;;;19.60;63.20;;;;;;5085755;28;20028;-71
2022/11/10 10:03:53;;;;;;;10.18;1.58;;;19.70;61.50;;;;;;5078329;28;20084;-71
2022/11/10 10:06:21;;;;;;;7.70;1.02;;;19.40;62.20;;;;;;5091140;28;20080;-71
2022/11/10 10:09:13;;;;;;;9.50;1.15;;;18.60;64.50;;;;;;5096358;28;20028;-72
2022/11/10 10:11:51;;;;;;;8.23;1.30;;;17.80;68.40;;;;;;5093565;28;20382;-74
2022/11/10 10:14:51;;;;;;;8.35;1.40;;;17.10;71.40;;;;;;5095527;28;20126;-73
2022/11/10 10:17:45;;;;;;;12.43;1.60;;;17.30;72.50;;;;;;5085584;28;20547;-72
2022/11/10 10:20:27;;;;;;;10.35;1.40;;;18.40;67.50;;;;;;5085990;28;20474;-71
2022/11/10 10:22:55;;;;;;;9.40;1.35;;;19.20;65.60;;;;;;5087332;28;20111;-74
2022/11/10 10:25:24;;;;;;;13.68;1.70;;;19.40;62.60;;;;;;5092378;28;20028;-74
2022/11/10 10:28:06;;;;;;;11.25;1.42;;;19.20;62.70;;;;;;5090195;28;20059;-73
2022/11/10 10:30:31;;;;;;;13.70;2.10;;;18.70;65.20;;;;;;5089144;28;20466;-74
2022/11/10 10:33:11;;;;;;;12.18;1.70;;;18.20;67.60;;;;;;5092141;28;20047;-73
2022/11/10 10:35:37;;;;;;;11.93;1.52;;;17.70;68.30;;;;;;5068522;28;20028;-74
2022/11/10 10:38:08;;;;;;;18.02;2.40;;;17.00;71.70;;;;;;5067277;28;20266;-73
2022/11/10 10:40:34;;;;;;;14.32;1.63;;;16.60;75.80;;;;;;5091638;28;20051;-73
2022/11/10 10:42:59;;;;;;;15.00;1.88;;;16.40;77.60;;;;;;5096067;28;20127;-73
2022/11/10 10:45:31;;;;;;;13.30;2.22;;;16.70;77.50;;;;;;5089251;28;20443;-73
2022/11/10 10:47:56;;;;;;;;;;;17.30;75.30;;;;;;5095124;28;20038;-74
2022/11/10 10:50:29;;;;;;;11.30;1.95;;;17.70;73.20;;;;;;5099525;28;20379;-74
2022/11/10 10:53:05;;;;;;;14.10;2.00;;;18.20;73.70;;;;;;5070530;28;20061;-74
2022/11/10 10:55:32;;;;;;;13.68;1.90;;;18.00;70.40;;;;;;5082788;28;20023;-74
2022/11/10 10:58:03;;;;;;;10.02;1.92;;;17.90;70.10;;;;;;5088391;28;20089;-73
2022/11/10 11:00:29;;;;;;;16.63;1.80;;;17.50;71.10;;;;;;5081899;28;20382;-74
2022/11/10 11:03:11;;;;;;;13.45;1.83;;;17.00;74.70;;;;;;5094684;28;20097;-74
2022/11/10 11:05:37;;;;;;;11.30;1.63;;;17.10;76.50;;;;;;5093428;28;20043;-73
2022/11/10 11:08:03;;;;;;;11.05;1.92;;;16.90;75.40;;;;;;5099632;28;20046;-74
2022/11/10 11:10:32;;;;;;;12.68;1.60;;;16.70;77.10;;;;;;5099733;28;20165;-74
2022/11/10 11:13:26;;;;;;;14.77;1.90;;;16.80;76.70;;;;;;5099629;28;20447;-74
2022/11/10 11:15:56;;;;;;;9.45;1.67;;;17.40;73.60;;;;;;5091919;28;20485;-73
2022/11/10 11:18:24;;;;;;;11.70;1.70;;;18.10;72.10;;;;;;5099692;28;20085;-73
2022/11/10 11:21:07;;;;;;;9.23;1.58;;;18.30;70.10;;;;;;5077660;28;20104;-74
2022/11/10 11:23:52;;;;;;;15.52;2.15;;;18.40;68.60;;;;;;5096147;28;20065;-74
2022/11/10 11:26:46;;;;;;;9.25;1.75;;;18.00;69.70;;;;;;5058332;28;20036;-74
2022/11/10 11:29:29;;;;;;;16.13;1.63;;;18.00;68.60;;;;;;5085434;28;20027;-73
2022/11/10 11:32:12;;;;;;;11.05;1.77;;;17.70;70.70;;;;;;5087766;28;20035;-73
2022/11/10 11:34:49;;;;;;;8.48;1.73;;;17.90;69.00;;;;;;5094924;28;20063;-73
2022/11/10 11:37:31;;;;;;;13.80;1.73;;;17.80;69.00;;;;;;5096340;28;20020;-74
2022/11/10 11:39:57;;;;;;;13.23;1.40;;;17.40;67.30;;;;;;5075907;28;20032;-73
2022/11/10 11:42:52;;;;;;;9.27;1.58;;;17.20;70.10;;;;;;5090639;28;20034;-74
2022/11/10 11:45:42;;;;;;;11.38;1.60;;;17.60;71.30;;;;;;5087489;28;20077;-73
2022/11/10 11:48:53;;;;;;;11.90;1.65;;;17.80;67.60;;;;;;5074313;28;20027;-74
2022/11/10 11:51:44;;;;;;;8.23;1.10;;;17.90;68.20;;;;;;4733291;28;9999651;-73
2022/11/10 11:54:47;;;;;;;16.17;2.03;;;18.10;68.60;;;;;;5090688;28;20118;-75
2022/11/10 11:57:19;;;;;;;13.13;1.63;;;17.60;69.20;;;;;;5075795;28;20398;-73
2022/11/10 12:00:23;;;;;;;18.95;1.90;;;17.20;72.70;;;;;;5079538;28;20474;-73
2022/11/10 12:02:54;;;;;;;12.32;1.73;;;17.50;73.10;;;;;;5058002;28;20663;-74
2022/11/10 12:05:42;;;;;;;;;;;17.50;69.90;;;;;;5080850;28;20423;-74
2022/11/10 12:08:28;;;;;;;15.88;1.80;;;17.30;71.00;;;;;;5082123;28;20002;-73
2022/11/10 12:11:25;;;;;;;10.75;1.67;;;16.80;71.50;;;;;;5082024;28;20437;-73
2022/11/10 12:14:10;;;;;;;8.57;1.50;;;16.80;71.70;;;;;;5078965;28;20118;-73
2022/11/10 12:16:37;;;;;;;14.13;1.85;;;16.80;73.20;;;;;;5080605;28;20485;-74
2022/11/10 12:19:26;;;;;;;8.90;1.80;;;16.70;70.50;;;;;;5083849;28;20118;-73
2022/11/10 12:22:34;;;;;;;13.98;1.60;;;16.60;72.70;;;;;;5076193;28;20104;-73
2022/11/10 12:25:30;;;;;;;10.00;1.40;;;16.50;71.70;;;;;;5053837;28;20043;-74
2022/11/10 12:28:16;;;;;;;12.85;1.63;;;16.40;73.20;;;;;;5077212;28;20038;-73
2022/11/10 12:30:43;;;;;;;11.18;1.35;;;16.10;74.20;;;;;;5090883;28;20028;-73
2022/11/10 12:33:28;;;;;;;11.80;1.60;;;16.10;76.00;;;;;;5084231;28;20388;-74
2022/11/10 12:35:56;;;;;;;11.00;2.08;;;16.00;76.20;;;;;;5086954;28;20395;-72
2022/11/10 12:38:30;;;;;;;14.95;2.10;;;16.10;77.60;;;;;;5093461;28;20474;-74
2022/11/10 12:41:08;;;;;;;11.73;1.98;;;16.10;77.80;;;;;;5074072;28;20035;-74
2022/11/10 12:43:38;;;;;;;15.07;2.05;;;16.20;76.80;;;;;;5088227;28;20040;-74
2022/11/10 12:46:09;;;;;;;13.38;2.30;;;16.20;78.00;;;;;;5088080;28;20062;-73
2022/11/10 12:48:51;;;;;;;16.60;1.83;;;16.50;78.60;;;;;;5094249;28;20032;-74
2022/11/10 12:51:26;;;;;;;15.48;1.85;;;16.70;78.00;;;;;;5071364;28;20032;-75
2022/11/10 12:53:52;;;;;;;16.98;1.92;;;16.80;76.30;;;;;;5091738;28;20027;-73
2022/11/10 12:56:25;;;;;;;15.68;1.90;;;16.60;78.30;;;;;;5092828;28;20114;-73
2022/11/10 12:59:13;;;;;;;7.70;1.85;;;16.50;76.30;;;;;;5096145;28;20237;-75
2022/11/10 13:01:42;;;;;;;12.88;1.90;;;16.40;77.10;;;;;;5075837;28;20032;-73
2022/11/10 13:04:12;;;;;;;17.20;2.30;;;16.40;77.10;;;;;;5091136;28;20104;-73